Time;durP1;ratioP1;P1;durP2;ratioP2;P2;SDS_P1;SDS_P2;PMS_P1;PMS_P2;Temp;Humidity;BMP_temperature;BMP_pressure;BME280_temperature;BME280_humidity;BME280_pressure;Samples;Min_cycle;Max_cycle;Signal;HPM_P1;HPM_P2
2022/07/22 00:00:44;;;;;;;;;;;;;;;17.31;100.00;99075.64;1676576;85;20127;-87
2022/07/22 00:03:12;;;;;;;;;;;;;;;17.33;100.00;99073.27;1655685;85;20131;-83
2022/07/22 00:05:43;;;;;;;;;;;;;;;17.32;100.00;99075.06;1655858;85;20127;-83
2022/07/22 00:08:15;;;;;;;;;;;;;;;17.31;100.00;99081.78;1654982;85;20187;-83
2022/07/22 00:10:47;;;;;;;;;;;;;;;17.29;100.00;99091.06;1676925;85;20494;-79
2022/07/22 00:13:14;;;;;;;;;;;;;;;17.29;100.00;99090.47;1675130;85;20167;-79
2022/07/22 00:15:41;;;;;;;;;;;;;;;17.29;100.00;99092.45;1655680;85;20533;-79
2022/07/22 00:18:15;;;;;;;;;;;;;;;17.29;100.00;99102.16;1655828;85;20482;-82
2022/07/22 00:20:49;;;;;;;;;;;;;;;17.29;100.00;99100.18;1676860;85;20506;-82
2022/07/22 00:23:17;;;;;;;;;;;;;;;17.30;100.00;99107.33;1676822;85;20148;-81
2022/07/22 00:25:48;;;;;;;;;;;;;;;17.27;100.00;99109.45;1676865;85;20451;-82
2022/07/22 00:28:16;;;;;;;;;;;;;;;17.24;100.00;99107.42;1657346;85;20160;-81
2022/07/22 00:30:46;;;;;;;;;;;;;;;17.24;100.00;99113.56;1681428;85;20501;-81
2022/07/22 00:33:20;;;;;;;;;;;;;;;17.21;100.00;99117.08;1681236;85;20459;-82
2022/07/22 00:35:51;;;;;;;;;;;;;;;17.20;100.00;99119.05;1681935;84;20415;-80
2022/07/22 00:38:20;;;;;;;;;;;;;;;17.16;100.00;99123.14;1682440;84;20434;-80
2022/07/22 00:40:50;;;;;;;;;;;;;;;17.12;100.00;99115.93;1680961;85;21123;-80
2022/07/22 00:43:17;;;;;;;;;;;;;;;17.05;100.00;99114.42;1680883;85;20179;-78
2022/07/22 00:45:53;;;;;;;;;;;;;;;16.97;100.00;99118.23;1662331;85;20439;-80
2022/07/22 00:48:25;;;;;;;;;;;;;;;16.95;100.00;99121.95;1657540;85;20127;-79
2022/07/22 00:51:07;;;;;;;;;;;;;;;16.91;100.00;99125.25;1683672;85;20163;-79
2022/07/22 00:53:28;;;;;;;;;;;;;;;16.87;100.00;99130.73;1680372;85;21138;-80
2022/07/22 00:55:55;;;;;;;;;;;;;;;16.82;100.00;99129.64;1681159;85;20150;-85
2022/07/22 00:58:32;;;;;;;;;;;;;;;16.76;100.00;99124.17;1681939;85;20107;-85
2022/07/22 01:01:00;;;;;;;;;;;;;;;16.67;100.00;99131.36;1661611;85;20119;-84
2022/07/22 01:03:31;;;;;;;;;;;;;;;16.62;100.00;99130.24;1687104;83;20127;-84
2022/07/22 01:05:58;;;;;;;;;;;;;;;16.56;100.00;99135.86;1686509;85;21146;-83
2022/07/22 01:08:24;;;;;;;;;;;;;;;16.51;100.00;99131.41;1686700;84;20182;-84
2022/07/22 01:10:52;;;;;;;;;;;;;;;16.46;100.00;99138.63;1681566;85;20103;-85
2022/07/22 01:13:25;;;;;;;;;;;;;;;16.41;100.00;99136.16;1687594;83;20537;-81
2022/07/22 01:15:52;;;;;;;;;;;;;;;16.36;100.00;99137.83;1681013;85;20493;-83
2022/07/22 01:18:22;;;;;;;;;;;;;;;16.33;100.00;99134.40;1681748;85;21162;-82
2022/07/22 01:20:53;;;;;;;;;;;;;;;16.29;100.00;99133.52;1679841;85;20115;-82
2022/07/22 01:23:22;;;;;;;;;;;;;;;16.25;100.00;99128.48;1687355;84;20126;-80
2022/07/22 01:25:51;;;;;;;;;;;;;;;16.22;100.00;99127.02;1686833;85;20126;-80
2022/07/22 01:28:19;;;;;;;;;;;;;;;16.18;100.00;99129.72;1683998;84;20147;-82
2022/07/22 01:30:50;;;;;;;;;;;;;;;16.16;100.00;99131.50;1685195;84;21792;-83
2022/07/22 01:33:24;;;;;;;;;;;;;;;16.12;100.00;99131.20;1648942;84;20144;-82
2022/07/22 01:35:56;;;;;;;;;;;;;;;16.07;100.00;99130.09;1650173;86;32486;-80
2022/07/22 01:38:25;;;;;;;;;;;;;;;16.05;100.00;99135.20;1637849;87;20143;-80
2022/07/22 01:40:51;;;;;;;;;;;;;;;16.01;100.00;99139.84;1637843;87;20117;-80
2022/07/22 01:43:23;;;;;;;;;;;;;;;15.97;100.00;99141.16;1637932;87;21296;-81
2022/07/22 01:45:53;;;;;;;;;;;;;;;15.94;100.00;99142.45;1638407;87;20084;-81
2022/07/22 01:48:30;;;;;;;;;;;;;;;15.92;100.00;99143.39;1637844;87;20438;-80
2022/07/22 01:51:00;;;;;;;;;;;;;;;15.87;100.00;99144.48;1638358;87;20237;-81
2022/07/22 01:53:31;;;;;;;;;;;;;;;15.82;100.00;99155.25;1610635;87;20092;-79
2022/07/22 01:56:06;;;;;;;;;;;;;;;15.76;100.00;99149.77;1610026;87;20096;-81
2022/07/22 01:58:37;;;;;;;;;;;;;;;15.73;100.00;99153.25;1636929;87;20100;-80
2022/07/22 02:01:10;;;;;;;;;;;;;;;15.72;100.00;99156.38;1638324;87;20152;-80
2022/07/22 02:03:38;;;;;;;;;;;;;;;15.71;100.00;99148.66;1638186;87;20450;-80
2022/07/22 02:06:08;;;;;;;;;;;;;;;15.71;100.00;99156.95;1637452;87;20168;-81
2022/07/22 02:08:46;;;;;;;;;;;;;;;15.68;100.00;99167.36;1610637;87;20173;-80
2022/07/22 02:11:13;;;;;;;;;;;;;;;15.64;100.00;99166.47;1638344;87;20560;-84
2022/07/22 02:13:45;;;;;;;;;;;;;;;15.61;100.00;99174.10;1637294;87;20080;-79
2022/07/22 02:16:15;;;;;;;;;;;;;;;15.57;100.00;99173.24;1634216;87;20179;-78
2022/07/22 02:18:43;;;;;;;;;;;;;;;15.55;100.00;99176.91;1638403;87;20483;-76
2022/07/22 02:21:11;;;;;;;;;;;;;;;15.50;100.00;99177.98;1609563;87;20176;-78
2022/07/22 02:23:45;;;;;;;;;;;;;;;15.46;100.00;99177.09;1638403;87;20103;-77
2022/07/22 02:26:13;;;;;;;;;;;;;;;15.44;100.00;99180.80;1637782;87;20100;-76
2022/07/22 02:28:40;;;;;;;;;;;;;;;15.42;100.00;99190.61;1630537;87;20133;-79
2022/07/22 02:31:13;;;;;;;;;;;;;;;15.38;100.00;99189.13;1601978;88;20084;-78
2022/07/22 02:33:45;;;;;;;;;;;;;;;15.37;100.00;99191.68;1621477;88;21822;-75
2022/07/22 02:36:19;;;;;;;;;;;;;;;15.37;100.00;99190.88;1620919;88;20105;-74
2022/07/22 02:38:48;;;;;;;;;;;;;;;15.34;100.00;99195.73;1620960;88;20452;-76
2022/07/22 02:41:17;;;;;;;;;;;;;;;15.33;100.00;99185.83;1621665;88;20153;-74
2022/07/22 02:43:58;;;;;;;;;;;;;;;15.32;100.00;99179.50;1622288;87;20125;-74
2022/07/22 02:46:23;;;;;;;;;;;;;;;15.34;100.00;99190.20;1621778;88;21816;-73
2022/07/22 02:48:50;;;;;;;;;;;;;;;15.35;100.00;99187.66;1621851;88;20192;-75
2022/07/22 02:51:22;;;;;;;;;;;;;;;15.34;100.00;99184.09;1654890;85;20100;-74
2022/07/22 02:53:51;;;;;;;;;;;;;;;15.35;100.00;99182.12;1672567;86;20247;-77
2022/07/22 02:56:19;;;;;;;;;;;;;;;15.35;100.00;99182.12;1672321;85;20104;-76
2022/07/22 02:58:52;;;;;;;;;;;;;;;15.37;100.00;99190.88;1652441;85;20092;-76
2022/07/22 03:01:19;;;;;;;;;;;;;;;15.40;100.00;99194.31;1672578;85;20439;-75
2022/07/22 03:03:52;;;;;;;;;;;;;;;15.40;100.00;99190.97;1673186;85;20088;-75
2022/07/22 03:06:21;;;;;;;;;;;;;;;15.43;100.00;99183.92;1672308;85;20100;-78
2022/07/22 03:08:57;;;;;;;;;;;;;;;15.49;100.00;99190.21;1653148;86;20100;-75
2022/07/22 03:11:25;;;;;;;;;;;;;;;15.52;100.00;99197.00;1673276;86;21202;-76
2022/07/22 03:14:06;;;;;;;;;;;;;;;15.56;100.00;99197.89;1673506;86;20125;-75
2022/07/22 03:16:23;;;;;;;;;;;;;;;15.61;100.00;99196.81;1664372;85;20467;-74
2022/07/22 03:18:54;;;;;;;;;;;;;;;15.66;100.00;99195.97;1666356;86;20104;-78
2022/07/22 03:21:25;;;;;;;;;;;;;;;15.70;100.00;99188.56;1673304;85;20506;-76
2022/07/22 03:24:16;;;;;;;;;;;;;;;15.74;100.00;99188.06;1672891;85;21110;-76
2022/07/22 03:26:25;;;;;;;;;;;;;;;15.78;100.00;99187.57;1663733;86;20088;-76
2022/07/22 03:28:53;;;;;;;;;;;;;;;15.81;100.00;99188.81;1680203;85;20123;-77
2022/07/22 03:31:24;;;;;;;;;;;;;;;15.85;100.00;99184.17;1688260;85;20087;-78
2022/07/22 03:33:58;;;;;;;;;;;;;;;15.89;100.00;99188.41;1690079;84;20126;-78
2022/07/22 03:36:24;;;;;;;;;;;;;;;15.92;100.00;99188.48;1689165;85;21766;-77
2022/07/22 03:38:53;;;;;;;;;;;;;;;15.95;100.00;99193.89;1690107;84;20092;-75
2022/07/22 03:41:27;;;;;;;;;;;;;;;15.98;100.00;99197.33;1670491;83;20122;-76
2022/07/22 03:44:08;;;;;;;;;;;;;;;16.03;100.00;99194.28;1718867;82;20093;-75
2022/07/22 03:46:28;;;;;;;;;;;;;;;16.08;100.00;99203.69;1714505;83;20085;-75
2022/07/22 03:48:59;;;;;;;;;;;;;;;16.13;100.00;99206.98;1718873;83;21564;-75
2022/07/22 03:51:27;;;;;;;;;;;;;;;16.17;100.00;99198.14;1689476;83;20105;-74
2022/07/22 03:53:57;;;;;;;;;;;;;;;16.23;100.00;99201.44;1719195;83;20093;-73
2022/07/22 03:56:30;;;;;;;;;;;;;;;16.27;100.00;99209.83;1718677;83;20125;-73
2022/07/22 03:58:55;;;;;;;;;;;;;;;16.33;100.00;99213.34;1718232;83;20443;-74
2022/07/22 04:01:22;;;;;;;;;;;;;;;16.38;100.00;99207.52;1718558;83;21770;-73
2022/07/22 04:03:48;;;;;;;;;;;;;;;16.42;100.00;99208.40;1718978;83;20109;-74
2022/07/22 04:06:27;;;;;;;;;;;;;;;16.48;100.00;99213.07;1686702;83;20424;-73
2022/07/22 04:08:57;;;;;;;;;;;;;;;16.59;100.00;99210.53;1689663;83;20073;-74
2022/07/22 04:11:24;;;;;;;;;;;;;;;16.72;100.00;99215.60;1719392;83;20163;-74
2022/07/22 04:14:00;;;;;;;;;;;;;;;16.81;100.00;99216.16;1718404;83;21087;-73
2022/07/22 04:16:28;;;;;;;;;;;;;;;16.95;100.00;99216.23;1718547;83;20097;-75
2022/07/22 04:19:00;;;;;;;;;;;;;;;17.01;100.00;99225.27;1682265;83;20116;-75
2022/07/22 04:21:46;;;;;;;;;;;;;;;17.05;100.00;99219.21;1652305;85;20163;-73
2022/07/22 04:24:19;;;;;;;;;;;;;;;17.11;100.00;99214.97;1675688;83;20116;-77
2022/07/22 04:26:48;;;;;;;;;;;;;;;17.11;100.00;99212.20;1646525;85;20172;-79
2022/07/22 04:29:14;;;;;;;;;;;;;;;17.11;100.00;99219.12;1699539;83;20150;-79
2022/07/22 04:31:43;;;;;;;;;;;;;;;17.11;100.00;99216.36;1684396;84;20140;-78
2022/07/22 04:34:14;;;;;;;;;;;;;;;17.12;100.00;99221.32;1690194;84;20170;-75
2022/07/22 04:36:49;;;;;;;;;;;;;;;17.14;100.00;99221.75;1680620;84;20486;-77
2022/07/22 04:39:19;;;;;;;;;;;;;;;17.21;100.00;99218.31;1701390;84;21148;-78
2022/07/22 04:41:53;;;;;;;;;;;;;;;17.29;100.00;99220.05;1700891;84;20118;-78
2022/07/22 04:44:22;;;;;;;;;;;;;;;17.37;100.00;99221.17;1700634;84;20094;-77
2022/07/22 04:46:46;;;;;;;;;;;;;;;17.40;100.00;99225.18;1700934;84;20109;-78
2022/07/22 04:49:18;;;;;;;;;;;;;;;17.49;100.00;99226.55;1701123;84;20445;-77
2022/07/22 04:51:53;;;;;;;;;;;;;;;17.61;100.00;99221.98;1701285;83;21614;-77
2022/07/22 04:54:20;;;;;;;;;;;;;;;17.64;100.00;99230.96;1700078;84;20099;-79
2022/07/22 04:56:53;;;;;;;;;;;;;;;17.65;100.00;99229.79;1680577;84;20074;-77
2022/07/22 04:59:21;;;;;;;;;;;;;;;17.68;100.00;99219.36;1701406;84;20151;-77
2022/07/22 05:01:56;;;;;;;;;;;;;;;17.74;100.00;99231.17;1701691;84;20086;-77
2022/07/22 05:04:25;;;;;;;;;;;;;;;17.83;100.00;99227.34;1701622;84;21260;-79
2022/07/22 05:06:52;;;;;;;;;;;;;;;17.92;100.00;99231.44;1680960;84;20145;-78
2022/07/22 05:09:22;;;;;;;;;;;;;;;17.99;100.00;99238.50;1699673;83;20134;-78
2022/07/22 05:11:51;;;;;;;;;;;;;;;18.03;100.00;99239.36;1701147;83;20158;-77
2022/07/22 05:14:25;;;;;;;;;;;;;;;18.08;100.00;99235.46;1680429;84;20454;-76
2022/07/22 05:17:02;;;;;;;;;;;;;;;18.15;100.00;99232.80;1681179;84;20098;-76
2022/07/22 05:19:34;;;;;;;;;;;;;;;18.19;100.00;99231.46;1681805;84;20086;-80
2022/07/22 05:22:06;;;;;;;;;;;;;;;18.25;100.00;99234.94;1680850;84;20169;-78
2022/07/22 05:24:35;;;;;;;;;;;;;;;18.30;100.00;99230.45;1701330;84;20098;-78
2022/07/22 05:27:03;;;;;;;;;;;;;;;18.38;100.00;99229.38;1695595;83;20124;-78
2022/07/22 05:29:30;;;;;;;;;;;;;;;18.48;100.00;99227.30;1688674;84;21552;-75
2022/07/22 05:31:59;;;;;;;;;;;;;;;18.61;100.00;99226.52;1697211;84;20430;-75
2022/07/22 05:34:29;;;;;;;;;;;;;;;18.74;100.00;99235.42;1694594;84;20443;-76
2022/07/22 05:36:59;;;;;;;;;;;;;;;18.84;100.00;99236.73;1696567;84;20881;-76
2022/07/22 05:39:32;;;;;;;;;;;;;;;18.92;100.00;99233.67;1699955;84;20095;-76
2022/07/22 05:41:58;;;;;;;;;;;;;;;19.04;100.00;99240.96;1696956;84;22107;-80
2022/07/22 05:44:27;;;;;;;;;;;;;;;19.17;99.64;99241.48;1697046;84;20103;-75
2022/07/22 05:47:03;;;;;;;;;;;;;;;19.20;99.14;99247.67;1697247;84;20122;-78
2022/07/22 05:49:37;;;;;;;;;;;;;;;19.24;98.40;99245.14;1699654;82;20115;-76
2022/07/22 05:52:08;;;;;;;;;;;;;;;19.34;98.17;99248.63;1696423;83;20162;-76
2022/07/22 05:54:36;;;;;;;;;;;;;;;19.46;98.04;99247.56;1694425;84;21185;-80
2022/07/22 05:57:00;;;;;;;;;;;;;;;19.57;97.73;99248.50;1705637;83;20449;-77
2022/07/22 05:59:27;;;;;;;;;;;;;;;19.69;96.62;99253.77;1660240;85;20180;-80
2022/07/22 06:01:53;;;;;;;;;;;;;;;19.75;93.35;99250.83;1684325;84;20088;-80
2022/07/22 06:04:31;;;;;;;;;;;;;;;19.81;93.21;99244.91;1685653;83;20092;-80
2022/07/22 06:06:58;;;;;;;;;;;;;;;19.93;92.78;99245.42;1704683;84;21130;-71
2022/07/22 06:09:25;;;;;;;;;;;;;;;20.06;91.35;99249.51;1697442;84;20097;-75
2022/07/22 06:11:52;;;;;;;;;;;;;;;20.16;87.17;99253.56;1680872;84;20423;-73
2022/07/22 06:14:19;;;;;;;;;;;;;;;20.24;87.31;99256.58;1680952;85;20112;-70
2022/07/22 06:16:47;;;;;;;;;;;;;;;20.34;87.28;99260.63;1680970;85;20096;-71
2022/07/22 06:19:13;;;;;;;;;;;;;;;20.48;86.90;99257.97;1680939;84;21792;-71
2022/07/22 06:21:40;;;;;;;;;;;;;;;20.61;85.35;99257.05;1680802;85;20124;-70
2022/07/22 06:24:07;;;;;;;;;;;;;;;20.69;83.92;99255.31;1680895;85;20435;-69
2022/07/22 06:26:34;;;;;;;;;;;;;;;20.77;83.12;99247.78;1680912;84;20155;-73
2022/07/22 06:29:01;;;;;;;;;;;;;;;20.86;82.87;99247.39;1680047;85;20088;-74
2022/07/22 06:31:28;;;;;;;;;;;;;;;20.94;80.53;99249.82;1673089;86;21802;-76
2022/07/22 06:33:56;;;;;;;;;;;;;;;21.03;79.38;99250.86;1673212;85;20088;-73
2022/07/22 06:36:24;;;;;;;;;;;;;;;21.08;78.45;99247.69;1673228;85;20124;-71
2022/07/22 06:38:51;;;;;;;;;;;;;;;21.17;79.29;99252.30;1673482;86;20444;-73
2022/07/22 06:41:22;;;;;;;;;;;;;;;21.30;77.29;99241.02;1672077;85;20096;-72
2022/07/22 06:43:50;;;;;;;;;;;;;;;21.41;77.17;99247.98;1662676;86;21081;-73
2022/07/22 06:46:31;;;;;;;;;;;;;;;21.54;76.11;99249.21;1617971;86;20135;-74
2022/07/22 06:48:58;;;;;;;;;;;;;;;21.67;75.97;99251.03;1690262;83;20102;-80
2022/07/22 06:51:25;;;;;;;;;;;;;;;21.80;76.29;99240.27;1721160;83;20147;-83
2022/07/22 06:53:52;;;;;;;;;;;;;;;21.89;74.63;99243.47;1721120;83;20095;-77
2022/07/22 06:56:19;;;;;;;;;;;;;;;21.92;73.46;99244.07;1709166;83;21136;-82
2022/07/22 06:58:45;;;;;;;;;;;;;;;21.91;72.29;99239.68;1701543;84;20082;-78
2022/07/22 07:01:12;;;;;;;;;;;;;;;21.87;73.56;99243.87;1701432;84;20091;-78
2022/07/22 07:03:40;;;;;;;;;;;;;;;21.91;72.95;99239.68;1699549;84;20118;-76
2022/07/22 07:06:13;;;;;;;;;;;;;;;21.98;73.68;99242.44;1683481;84;20149;-80
2022/07/22 07:08:44;;;;;;;;;;;;;;;22.05;73.20;99240.48;1667014;84;21123;-79
2022/07/22 07:11:11;;;;;;;;;;;;;;;22.17;71.44;99239.27;1702819;83;20110;-79
2022/07/22 07:13:38;;;;;;;;;;;;;;;22.24;69.91;99225.89;1711133;83;20072;-78
2022/07/22 07:16:06;;;;;;;;;;;;;;;22.27;68.96;99235.67;1720932;83;20446;-77
2022/07/22 07:18:33;;;;;;;;;;;;;;;22.32;68.06;99240.05;1692025;83;20146;-79
2022/07/22 07:20:59;;;;;;;;;;;;;;;22.42;67.02;99239.23;1708773;83;20993;-71
2022/07/22 07:23:26;;;;;;;;;;;;;;;22.52;67.65;99235.62;1701341;84;20086;-71
2022/07/22 07:25:53;;;;;;;;;;;;;;;22.67;68.58;99244.75;1703939;83;20122;-71
2022/07/22 07:28:20;;;;;;;;;;;;;;;22.85;66.04;99248.92;1709997;83;20146;-72
2022/07/22 07:30:51;;;;;;;;;;;;;;;22.98;66.49;99263.47;1701324;84;20094;-72
2022/07/22 07:33:18;;;;;;;;;;;;;;;23.08;65.03;99255.44;1702549;83;21090;-72
2022/07/22 07:35:45;;;;;;;;;;;;;;;23.19;66.55;99251.95;1690166;83;20094;-71
2022/07/22 07:38:12;;;;;;;;;;;;;;;23.37;64.75;99254.86;1701494;84;20130;-70
2022/07/22 07:40:41;;;;;;;;;;;;;;;23.53;62.87;99253.00;1701417;84;20074;-70
2022/07/22 07:43:07;;;;;;;;;;;;;;;23.59;60.65;99259.77;1680585;84;20106;-70
2022/07/22 07:45:34;;;;;;;;;;;;;;;23.54;59.80;99262.99;1680612;84;21158;-70
2022/07/22 07:48:01;;;;;;;;;;;;;;;23.41;60.58;99258.23;1701271;84;20170;-70
2022/07/22 07:50:29;;;;;;;;;;;;;;;23.29;60.34;99265.11;1701367;84;20438;-69
2022/07/22 07:52:56;;;;;;;;;;;;;;;23.22;61.52;99262.34;1709629;83;20138;-70
2022/07/22 07:55:23;;;;;;;;;;;;;;;23.33;62.83;99271.48;1711764;83;20098;-70
2022/07/22 07:57:49;;;;;;;;;;;;;;;23.52;62.28;99270.19;1701386;84;21050;-70
2022/07/22 08:00:20;;;;;;;;;;;;;;;23.71;62.22;99269.06;1701344;84;20098;-70
2022/07/22 08:02:46;;;;;;;;;;;;;;;23.93;59.14;99277.31;1701669;84;20118;-69
2022/07/22 08:05:13;;;;;;;;;;;;;;;24.04;58.70;99283.64;1701434;84;20179;-70
2022/07/22 08:07:39;;;;;;;;;;;;;;;24.12;58.87;99272.56;1701804;84;20086;-69
2022/07/22 08:10:07;;;;;;;;;;;;;;;24.25;59.56;99279.30;1701448;84;21123;-69
2022/07/22 08:12:53;;;;;;;;;;;;;;;24.41;57.28;99280.12;1701370;84;20457;-70
2022/07/22 08:15:22;;;;;;;;;;;;;;;24.43;57.44;99272.69;1694578;84;20091;-71
2022/07/22 08:17:53;;;;;;;;;;;;;;;24.53;56.39;99283.02;1701467;84;20122;-70
2022/07/22 08:20:21;;;;;;;;;;;;;;;24.80;56.54;99278.93;1701572;84;20085;-70
2022/07/22 08:22:48;;;;;;;;;;;;;;;25.17;56.27;99269.67;1701689;84;21164;-70
2022/07/22 08:25:14;;;;;;;;;;;;;;;25.48;52.76;99267.63;1701437;84;20170;-70
2022/07/22 08:27:41;;;;;;;;;;;;;;;25.71;53.84;99278.97;1701423;84;20103;-70
2022/07/22 08:30:08;;;;;;;;;;;;;;;26.02;52.86;99271.23;1701757;84;20090;-70
2022/07/22 08:32:34;;;;;;;;;;;;;;;26.33;51.29;99267.73;1701559;83;20078;-71
2022/07/22 08:35:03;;;;;;;;;;;;;;;26.55;49.85;99263.31;1706031;83;20078;-70
2022/07/22 08:37:30;;;;;;;;;;;;;;;26.67;48.94;99266.08;1707427;83;20090;-70
2022/07/22 08:39:58;;;;;;;;;;;;;;;26.54;48.89;99268.75;1701845;83;20453;-72
2022/07/22 08:42:27;;;;;;;;;;;;;;;26.49;48.65;99264.23;1706798;83;20167;-71
2022/07/22 08:44:55;;;;;;;;;;;;;;;26.58;48.53;99263.83;1701510;84;20125;-71
2022/07/22 08:47:23;;;;;;;;;;;;;;;26.83;48.56;99263.97;1700956;84;21802;-71
2022/07/22 08:49:51;;;;;;;;;;;;;;;27.10;49.10;99265.27;1698672;84;20086;-71
2022/07/22 08:52:32;;;;;;;;;;;;;;;27.36;46.89;99260.66;1667011;84;20125;-72
2022/07/22 08:55:02;;;;;;;;;;;;;;;27.55;45.59;99261.23;1681848;84;20098;-73
2022/07/22 08:57:30;;;;;;;;;;;;;;;27.57;45.54;99274.28;1701562;84;20106;-70
2022/07/22 08:59:58;;;;;;;;;;;;;;;27.58;44.69;99273.84;1701105;83;21644;-71
2022/07/22 09:02:25;;;;;;;;;;;;;;;27.75;44.85;99274.67;1691600;84;20113;-70
2022/07/22 09:04:55;;;;;;;;;;;;;;;27.92;44.91;99269.23;1672965;86;20173;-71
2022/07/22 09:07:36;;;;;;;;;;;;;;;28.12;45.31;99271.97;1673170;85;20104;-70
2022/07/22 09:10:07;;;;;;;;;;;;;;;28.33;43.52;99259.97;1672922;85;20181;-70
2022/07/22 09:12:58;;;;;;;;;;;;;;;28.45;43.00;99267.72;1672829;85;20088;-69
2022/07/22 09:15:54;;;;;;;;;;;;;;;28.40;41.90;99265.43;1673161;85;20100;-70
2022/07/22 09:18:50;;;;;;;;;;;;;;;28.23;42.96;99271.12;1710052;83;20100;-71
2022/07/22 09:21:22;;;;;;;;;;;;;;;28.32;43.96;99272.49;1706533;83;20473;-71
2022/07/22 09:24:07;;;;;;;;;;;;;;;28.62;42.70;99273.52;1674773;83;20083;-71
2022/07/22 09:26:38;;;;;;;;;;;;;;;28.81;42.20;99274.00;1720787;83;21088;-72
2022/07/22 09:29:18;;;;;;;;;;;;;;;28.87;40.59;99276.48;1698390;83;20175;-72
2022/07/22 09:31:50;;;;;;;;;;;;;;;28.78;40.78;99274.89;1714739;83;20434;-72
2022/07/22 09:34:29;;;;;;;;;;;;;;;28.80;41.83;99272.41;1699023;84;20453;-71
2022/07/22 09:36:57;;;;;;;;;;;;;;;29.06;40.55;99271.88;1695303;84;20090;-71
2022/07/22 09:39:26;;;;;;;;;;;;;;;28.93;41.44;99276.08;1697377;83;21744;-72
2022/07/22 09:41:59;;;;;;;;;;;;;;;28.85;41.26;99270.48;1700949;84;20522;-71
2022/07/22 09:44:25;;;;;;;;;;;;;;;28.87;40.15;99284.95;1681325;84;20126;-71
2022/07/22 09:46:53;;;;;;;;;;;;;;;28.94;40.50;99276.87;1701733;83;20074;-70
2022/07/22 09:49:36;;;;;;;;;;;;;;;29.02;40.10;99261.92;1702915;84;20098;-71
2022/07/22 09:52:19;;;;;;;;;;;;;;;28.97;39.30;99270.33;1686547;84;21137;-71
2022/07/22 09:54:53;;;;;;;;;;;;;;;29.09;40.70;99274.44;1697314;83;20077;-69
2022/07/22 09:57:19;;;;;;;;;;;;;;;29.27;39.51;99282.40;1713248;84;20118;-69
2022/07/22 09:59:48;;;;;;;;;;;;;;;29.42;39.92;99281.55;1713184;83;20424;-69
2022/07/22 10:02:19;;;;;;;;;;;;;;;29.77;39.66;99276.02;1711985;83;20122;-69
2022/07/22 10:04:47;;;;;;;;;;;;;;;30.10;38.70;99268.87;1713182;83;20205;-70
2022/07/22 10:07:14;;;;;;;;;;;;;;;30.05;38.52;99275.11;1690964;84;20110;-70
2022/07/22 10:09:44;;;;;;;;;;;;;;;30.05;38.28;99269.44;1692814;83;20149;-72
2022/07/22 10:12:10;;;;;;;;;;;;;;;29.86;38.33;99281.79;1703331;83;20368;-73
2022/07/22 10:14:37;;;;;;;;;;;;;;;29.41;37.34;99281.38;1711025;83;20267;-72
2022/07/22 10:17:04;;;;;;;;;;;;;;;29.02;38.43;99278.88;1702874;83;21095;-71
2022/07/22 10:19:31;;;;;;;;;;;;;;;29.02;39.54;99278.25;1701446;84;20437;-70
2022/07/22 10:21:57;;;;;;;;;;;;;;;28.95;38.29;99280.48;1701408;84;20075;-70
2022/07/22 10:24:24;;;;;;;;;;;;;;;28.86;37.01;99286.19;1701892;83;20125;-71
2022/07/22 10:26:55;;;;;;;;;;;;;;;28.78;37.43;99280.53;1693879;84;20464;-72
2022/07/22 10:29:27;;;;;;;;;;;;;;;28.91;39.30;99287.65;1676518;84;21130;-72
2022/07/22 10:32:21;;;;;;;;;;;;;;;29.13;36.39;99274.50;1673043;85;20125;-71
2022/07/22 10:35:02;;;;;;;;;;;;;;;29.05;37.14;99276.56;1673023;85;20127;-71
2022/07/22 10:37:40;;;;;;;;;;;;;;;29.22;37.60;99275.27;1673203;85;20840;-71
2022/07/22 10:40:24;;;;;;;;;;;;;;;29.59;37.39;99275.16;1673145;85;20092;-72
2022/07/22 10:43:04;;;;;;;;;;;;;;;30.00;36.36;99272.88;1672772;85;22164;-72
2022/07/22 10:45:33;;;;;;;;;;;;;;;30.32;36.93;99271.78;1673159;85;20104;-70
2022/07/22 10:48:01;;;;;;;;;;;;;;;30.25;36.23;99270.61;1688284;83;20098;-70
2022/07/22 10:50:38;;;;;;;;;;;;;;;29.91;35.93;99276.98;1707222;83;20114;-71
2022/07/22 10:53:13;;;;;;;;;;;;;;;29.39;37.09;99279.59;1701310;83;20089;-72
2022/07/22 10:56:04;;;;;;;;;;;;;;;29.16;37.34;99291.19;1701600;83;21061;-72
2022/07/22 10:58:38;;;;;;;;;;;;;;;29.27;38.94;99280.98;1701253;84;20165;-72
2022/07/22 11:01:10;;;;;;;;;;;;;;;29.52;37.29;99291.72;1701588;84;20098;-71
2022/07/22 11:03:38;;;;;;;;;;;;;;;29.67;36.10;99285.01;1701272;84;20118;-72
2022/07/22 11:06:26;;;;;;;;;;;;;;;29.83;36.32;99282.70;1701346;83;20130;-72
2022/07/22 11:08:54;;;;;;;;;;;;;;;29.86;37.46;99283.20;1701367;83;21094;-73
2022/07/22 11:11:35;;;;;;;;;;;;;;;29.89;36.08;99283.09;1701220;84;20122;-75
2022/07/22 11:14:02;;;;;;;;;;;;;;;29.85;35.46;99290.90;1700732;84;20118;-72
2022/07/22 11:16:29;;;;;;;;;;;;;;;29.89;35.91;99280.89;1701346;84;20424;-72
2022/07/22 11:18:59;;;;;;;;;;;;;;;29.98;36.33;99288.07;1701314;84;20110;-71
2022/07/22 11:21:28;;;;;;;;;;;;;;;30.21;35.61;99274.97;1701348;84;21128;-71
2022/07/22 11:23:57;;;;;;;;;;;;;;;30.53;35.06;99276.71;1701110;84;20138;-72
2022/07/22 11:26:41;;;;;;;;;;;;;;;30.39;34.82;99276.41;1687893;84;20200;-71
2022/07/22 11:29:08;;;;;;;;;;;;;;;30.14;33.93;99280.87;1675796;85;20135;-72
2022/07/22 11:31:36;;;;;;;;;;;;;;;29.96;34.67;99289.14;1676257;84;20131;-72
2022/07/22 11:34:08;;;;;;;;;;;;;;;29.83;34.37;99273.58;1682933;84;21772;-71
2022/07/22 11:36:37;;;;;;;;;;;;;;;29.71;34.76;99276.41;1694167;84;20138;-72
2022/07/22 11:39:04;;;;;;;;;;;;;;;29.79;35.65;99274.94;1694152;84;20126;-71
2022/07/22 11:41:31;;;;;;;;;;;;;;;29.72;35.40;99290.73;1694058;84;20473;-71
2022/07/22 11:43:58;;;;;;;;;;;;;;;29.54;35.50;99290.65;1694330;84;20166;-71
2022/07/22 11:46:25;;;;;;;;;;;;;;;29.52;36.55;99287.48;1694553;84;21183;-71
2022/07/22 11:48:53;;;;;;;;;;;;;;;29.68;36.54;99280.14;1710238;83;20089;-73
2022/07/22 11:51:20;;;;;;;;;;;;;;;29.80;35.42;99290.67;1714571;83;20085;-72
2022/07/22 11:53:46;;;;;;;;;;;;;;;29.66;35.61;99293.94;1709025;84;20120;-71
2022/07/22 11:56:13;;;;;;;;;;;;;;;29.39;35.53;99297.18;1709231;84;20177;-72
2022/07/22 11:58:45;;;;;;;;;;;;;;;29.35;36.54;99292.25;1709013;84;21139;-72
2022/07/22 12:01:14;;;;;;;;;;;;;;;29.34;36.19;99285.80;1709138;84;20130;-72
2022/07/22 12:03:47;;;;;;;;;;;;;;;29.27;35.00;99283.19;1724253;83;20120;-71
2022/07/22 12:06:15;;;;;;;;;;;;;;;29.08;35.58;99284.16;1713718;82;20102;-72
2022/07/22 12:08:43;;;;;;;;;;;;;;;29.06;35.92;99285.22;1716550;83;20441;-73
2022/07/22 12:11:12;;;;;;;;;;;;;;;29.09;36.51;99280.08;1709014;84;21223;-78
2022/07/22 12:13:49;;;;;;;;;;;;;;;29.04;35.97;99281.42;1708979;84;20441;-74
2022/07/22 12:16:22;;;;;;;;;;;;;;;28.86;37.13;99283.37;1708934;84;20457;-75
2022/07/22 12:18:56;;;;;;;;;;;;;;;28.71;37.42;99282.76;1709178;83;20435;-81
2022/07/22 12:21:23;;;;;;;;;;;;;;;28.54;38.22;99284.20;1707794;83;20447;-75
2022/07/22 12:23:55;;;;;;;;;;;;;;;28.39;37.86;99286.42;1709179;84;21112;-80
2022/07/22 12:26:44;;;;;;;;;;;;;;;28.22;37.90;99282.84;1708400;84;20413;-79
2022/07/22 12:29:21;;;;;;;;;;;;;;;28.03;36.51;99274.61;1708741;83;20073;-77
2022/07/22 12:32:08;;;;;;;;;;;;;;;28.01;38.22;99272.85;1709099;84;20074;-79
2022/07/22 12:34:41;;;;;;;;;;;;;;;28.31;37.59;99279.41;1712217;83;20109;-81
2022/07/22 12:37:22;;;;;;;;;;;;;;;28.78;36.74;99274.89;1718953;83;21106;-84
2022/07/22 12:40:06;;;;;;;;;;;;;;;29.22;34.45;99276.05;1719057;83;20100;-77
2022/07/22 12:42:39;;;;;;;;;;;;;;;29.44;34.16;99274.03;1701297;83;20087;-82
2022/07/22 12:45:16;;;;;;;;;;;;;;;29.64;33.51;99272.39;1696209;84;20142;-81
2022/07/22 12:48:08;;;;;;;;;;;;;;;29.81;34.23;99266.80;1677344;84;20158;-75
2022/07/22 12:50:34;;;;;;;;;;;;;;;30.19;33.92;99260.48;1703565;84;21574;-78
2022/07/22 12:53:09;;;;;;;;;;;;;;;30.53;33.89;99258.30;1704666;84;20098;-75
2022/07/22 12:55:51;;;;;;;;;;;;;;;30.80;32.61;99263.41;1704582;84;20132;-74
2022/07/22 12:58:18;;;;;;;;;;;;;;;30.93;32.89;99261.15;1704619;83;20151;-76
2022/07/22 13:00:47;;;;;;;;;;;;;;;30.90;31.81;99269.95;1705011;84;20138;-76